Time;durP1;ratioP1;P1;durP2;ratioP2;P2;SDS_P1;SDS_P2;PMS_P1;PMS_P2;Temp;Humidity;BMP_temperature;BMP_pressure;BME280_temperature;BME280_humidity;BME280_pressure;Samples;Min_cycle;Max_cycle;Signal;HPM_P1;HPM_P2
2023/09/01 00:02:18;;;;;;;16.80;15.98;;;;;;;-141.02;100.00;39366.81;5113877;28;20624;-55
2023/09/01 00:04:45;;;;;;;17.08;16.17;;;;;;;-141.02;100.00;39401.34;5113879;28;20258;-55
2023/09/01 00:07:13;;;;;;;17.05;16.15;;;;;;;-141.02;100.00;39393.66;5113503;28;20202;-55
2023/09/01 00:09:41;;;;;;;17.15;16.25;;;;;;;-141.02;100.00;39389.84;5113795;28;20197;-55
2023/09/01 00:12:10;;;;;;;16.73;15.93;;;;;;;-141.02;100.00;39418.59;5113454;28;20249;-57
2023/09/01 00:14:38;;;;;;;16.15;15.35;;;;;;;-141.02;100.00;39403.25;5113367;27;20189;-56
2023/09/01 00:17:05;;;;;;;16.13;15.32;;;;;;;-141.02;100.00;39370.66;5113268;28;20244;-56
2023/09/01 00:19:32;;;;;;;15.32;14.63;;;;;;;-141.02;100.00;39368.75;5113582;28;20659;-65
2023/09/01 00:21:59;;;;;;;14.90;14.30;;;;;;;-141.02;100.00;39347.66;5113569;27;20189;-55
2023/09/01 00:24:27;;;;;;;14.80;14.20;;;;;;;-141.02;100.00;39355.31;5113571;28;20197;-55
2023/09/01 00:26:54;;;;;;;14.40;13.80;;;;;;;-141.02;100.00;39336.13;5113147;28;20189;-55
2023/09/01 00:29:21;;;;;;;13.82;13.32;;;;;;;-141.02;100.00;39330.38;5113418;28;20219;-55
2023/09/01 00:31:48;;;;;;;13.80;13.30;;;;;;;-141.02;100.00;39305.44;5113324;28;20193;-55
2023/09/01 00:34:15;;;;;;;13.70;13.20;;;;;;;-141.02;100.00;39270.94;5113401;28;20197;-55
2023/09/01 00:36:42;;;;;;;13.10;12.70;;;;;;;-141.02;100.00;39284.34;5112878;28;20701;-55
2023/09/01 00:39:09;;;;;;;13.18;12.77;;;;;;;-141.02;100.00;39282.44;5113362;28;20201;-55
2023/09/01 00:41:38;;;;;;;12.90;12.50;;;;;;;-141.02;100.00;39232.59;5113288;28;20189;-55
2023/09/01 00:44:05;;;;;;;12.60;12.20;;;;;;;-141.02;100.00;39201.91;5112826;28;20732;-55
2023/09/01 00:46:33;;;;;;;12.38;11.98;;;;;;;-141.02;100.00;39182.72;5112895;28;20197;-55
2023/09/01 00:49:00;;;;;;;12.18;11.77;;;;;;;-141.02;100.00;39106.00;5113109;28;20196;-66
2023/09/01 00:51:28;;;;;;;12.02;11.63;;;;;;;-141.02;100.00;39067.66;5113118;28;20258;-55
2023/09/01 00:53:56;;;;;;;12.00;11.60;;;;;;;-141.02;100.00;39031.22;5112654;28;20224;-55
2023/09/01 00:56:23;;;;;;;11.90;11.50;;;;;;;-141.02;100.00;38975.63;5113024;28;20189;-55
2023/09/01 00:58:51;;;;;;;12.00;11.60;;;;;;;-141.02;100.00;38910.44;5112889;28;20238;-55
2023/09/01 01:01:18;;;;;;;11.88;11.48;;;;;;;-141.02;100.00;38883.56;5112560;28;20698;-55
2023/09/01 01:03:47;;;;;;;11.80;11.40;;;;;;;-141.02;100.00;38818.38;5112593;28;20285;-66
2023/09/01 01:06:21;;;;;;;11.20;10.90;;;;;;;-141.02;100.00;38766.63;5112514;28;20197;-55
2023/09/01 01:08:57;;;;;;;11.07;10.77;;;;;;;-141.02;100.00;38712.94;5112576;28;20223;-57
2023/09/01 01:11:31;;;;;;;11.00;10.70;;;;;;;-141.02;100.00;38607.47;5112460;28;20185;-66
2023/09/01 01:14:05;;;;;;;10.55;10.25;;;;;;;-141.02;100.00;38549.94;5112805;28;20239;-55
2023/09/01 01:16:33;;;;;;;10.20;9.90;;;;;;;-141.02;100.00;38530.78;5112439;28;20288;-55
2023/09/01 01:19:11;;;;;;;10.02;9.73;;;;;;;-141.02;100.00;38440.66;5112382;28;20590;-55
2023/09/01 01:21:42;;;;;;;9.65;9.35;;;;;;;-141.02;100.00;38454.09;5112336;28;20677;-55
2023/09/01 01:24:11;;;;;;;9.60;9.30;;;;;;;-141.02;100.00;38471.34;5112712;28;20264;-55
2023/09/01 01:26:38;;;;;;;9.30;9.00;;;;;;;-141.02;100.00;38557.63;5112130;28;20236;-60
2023/09/01 01:29:07;;;;;;;9.00;8.80;;;;;;;-141.02;100.00;38546.13;5112410;28;20627;-55
2023/09/01 01:31:34;;;;;;;8.60;8.40;;;;;;;-141.02;100.00;38534.63;5112456;28;20662;-57
2023/09/01 01:34:10;;;;;;;8.40;8.20;;;;;;;-141.02;100.00;38569.13;5112263;28;20189;-66
2023/09/01 01:36:41;;;;;;;8.30;8.10;;;;;;;-141.02;100.00;38666.91;5112244;28;20181;-55
2023/09/01 01:39:16;;;;;;;8.02;7.82;;;;;;;-141.02;100.00;38837.56;5112497;28;20221;-55
2023/09/01 01:41:52;;;;;;;7.63;7.43;;;;;;;-141.02;100.00;39036.97;5112509;28;20191;-66
2023/09/01 01:44:27;;;;;;;7.88;7.68;;;;;;;-141.02;100.00;39236.41;5112501;28;20185;-55
2023/09/01 01:46:55;;;;;;;7.50;7.30;;;;;;;-141.02;100.00;39479.97;5112153;28;20189;-56
2023/09/01 01:49:21;;;;;;;7.25;7.05;;;;;;;-141.02;100.00;39827.13;5112136;28;20224;-55
2023/09/01 01:51:51;;;;;;;7.28;7.07;;;;;;;-141.02;100.00;39865.47;5112087;28;20287;-55
2023/09/01 01:54:21;;;;;;;7.68;7.47;;;;;;;-141.02;100.00;39942.19;5112095;28;20667;-55
2023/09/01 01:56:47;;;;;;;24.00;22.73;;;;;;;-141.02;100.00;39913.44;5112104;28;20780;-66
2023/09/01 01:59:14;;;;;;;8.45;8.25;;;;;;;-141.02;100.00;39834.78;5111898;28;20594;-55
2023/09/01 02:01:41;;;;;;;8.85;8.65;;;;;;;-141.02;100.00;39621.91;5112302;28;20231;-55
2023/09/01 02:04:08;;;;;;;9.57;9.27;;;;;;;-141.02;100.00;39412.84;5111964;28;20288;-55
2023/09/01 02:06:35;;;;;;;10.55;10.25;;;;;;;-141.02;100.00;39305.44;5114033;28;20289;-55
2023/09/01 02:09:03;;;;;;;10.80;10.50;;;;;;;-141.02;100.00;39198.06;5115829;28;20701;-57
2023/09/01 02:11:31;;;;;;;11.05;10.75;;;;;;;-141.02;100.00;39157.78;5115763;28;20204;-55
2023/09/01 02:13:58;;;;;;;11.40;11.00;;;;;;;-141.02;100.00;39129.03;5116044;28;20200;-55
2023/09/01 02:16:25;;;;;;;11.38;10.98;;;;;;;-141.02;100.00;39056.16;5115971;28;20276;-66
2023/09/01 02:18:52;;;;;;;11.43;11.02;;;;;;;-141.02;100.00;39044.66;5115434;28;20229;-65
2023/09/01 02:21:20;;;;;;;11.48;11.07;;;;;;;-141.02;100.00;39036.97;5115875;28;20648;-55
2023/09/01 02:23:47;;;;;;;11.68;11.27;;;;;;;-141.02;100.00;39090.69;5115580;28;20189;-66
2023/09/01 02:26:18;;;;;;;12.07;11.68;;;;;;;-141.02;100.00;39052.31;5115558;28;20189;-67
2023/09/01 02:28:47;;;;;;;12.30;11.90;;;;;;;-141.02;100.00;39017.81;5115442;28;20196;-59
2023/09/01 02:31:14;;;;;;;12.85;12.45;;;;;;;-141.02;100.00;38960.28;5115434;28;20199;-55
2023/09/01 02:33:41;;;;;;;13.10;12.60;;;;;;;-141.02;100.00;38935.34;5115404;28;20734;-55
2023/09/01 02:36:27;;;;;;;13.40;12.90;;;;;;;-141.02;100.00;38904.66;5115350;28;20244;-55
2023/09/01 02:38:55;;;;;;;13.73;13.23;;;;;;;-141.02;100.00;38904.66;5115564;28;20239;-56
2023/09/01 02:41:24;;;;;;;13.68;13.18;;;;;;;-141.02;100.00;38914.25;5115594;28;20197;-66
2023/09/01 02:43:52;;;;;;;13.50;13.00;;;;;;;-141.02;100.00;38933.44;5115511;27;20246;-56
2023/09/01 02:46:20;;;;;;;13.43;12.93;;;;;;;-141.02;100.00;38904.66;5115126;28;20754;-56
2023/09/01 02:48:47;;;;;;;13.90;13.40;;;;;;;-141.02;100.00;38925.75;5115513;28;20216;-66
2023/09/01 02:51:14;;;;;;;13.68;13.18;;;;;;;-141.02;100.00;38923.84;5115004;28;20189;-66
2023/09/01 02:53:41;;;;;;;12.55;12.15;;;;;;;-141.02;100.00;38891.25;5115011;28;20228;-55
2023/09/01 02:56:08;;;;;;;12.18;11.77;;;;;;;-141.02;100.00;38923.84;5115271;28;20197;-60
2023/09/01 02:58:35;;;;;;;11.75;11.35;;;;;;;-141.02;100.00;38998.63;5115133;28;20229;-64
2023/09/01 03:01:08;;;;;;;11.65;11.25;;;;;;;-141.02;100.00;39056.16;5115162;27;20193;-55
2023/09/01 03:03:35;;;;;;;11.70;11.30;;;;;;;-141.02;100.00;38990.97;5114901;28;20639;-61
2023/09/01 03:06:02;;;;;;;11.38;11.02;;;;;;;-141.02;100.00;38994.78;5115044;28;20279;-55
2023/09/01 03:08:35;;;;;;;10.82;10.52;;;;;;;-141.02;100.00;39010.13;5114684;28;20662;-55
2023/09/01 03:11:03;;;;;;;10.70;10.40;;;;;;;-141.02;100.00;39029.31;5113523;28;20185;-55
2023/09/01 03:13:30;;;;;;;10.10;9.80;;;;;;;-141.02;100.00;39090.69;5114842;28;20231;-55
2023/09/01 03:15:57;;;;;;;9.70;9.40;;;;;;;-141.02;100.00;39221.06;5114900;28;20635;-66
2023/09/01 03:18:26;;;;;;;9.00;8.80;;;;;;;-141.02;100.00;39324.63;5113796;28;20237;-55
2023/09/01 03:20:53;;;;;;;8.90;8.70;;;;;;;-141.02;100.00;39363.00;5114766;28;20276;-55
2023/09/01 03:23:20;;;;;;;8.57;8.38;;;;;;;-141.02;100.00;39493.41;5114697;28;20216;-56
2023/09/01 03:25:54;;;;;;;8.07;7.88;;;;;;;-141.02;100.00;39637.25;5114303;28;20189;-65
2023/09/01 03:28:21;;;;;;;7.88;7.68;;;;;;;-141.02;100.00;39877.00;5114377;28;20192;-57
2023/09/01 03:30:47;;;;;;;8.00;7.80;;;;;;;-141.02;100.00;40233.75;5114198;28;20203;-66
2023/09/01 03:33:15;;;;;;;7.60;7.40;;;;;;;-141.02;100.00;40790.09;5114546;28;20224;-65
2023/09/01 03:35:43;;;;;;;7.30;7.10;;;;;;;-141.02;100.00;41599.84;5114418;28;20232;-55
2023/09/01 03:38:10;;;;;;;7.20;7.00;;;;;;;-141.02;100.00;42885.84;5114375;28;20285;-55
2023/09/01 03:40:38;;;;;;;6.60;6.40;;;;;;;-141.02;100.00;44548.78;5114376;28;20227;-55
2023/09/01 03:43:07;;;;;;;6.10;6.00;;;;;;;-141.02;100.00;46254.81;5114006;28;20280;-66
2023/09/01 03:45:34;;;;;;;6.13;6.03;;;;;;;-141.02;100.00;48655.88;5114100;28;20615;-55
2023/09/01 03:48:01;;;;;;;6.10;6.00;;;;;;;-141.02;100.00;51303.06;5113897;27;20250;-56
2023/09/01 03:50:28;;;;;;;6.50;6.30;;;;;;;-141.02;100.00;54786.41;5113875;28;20209;-55
2023/09/01 03:52:56;;;;;;;6.10;6.00;;;;;;;-141.02;100.00;56759.78;5113854;28;20288;-55
2023/09/01 03:55:23;;;;;;;5.97;5.88;;;;;;;-141.02;100.00;58734.28;5114219;28;20196;-55
2023/09/01 03:57:50;;;;;;;6.20;6.10;;;;;;;-141.02;100.00;59721.97;5114141;28;20222;-55
2023/09/01 04:00:19;;;;;;;7.00;6.80;;;;;;;-141.02;100.00;60462.94;5114089;28;20633;-55
2023/09/01 04:02:46;;;;;;;6.63;6.43;;;;;;;-141.02;100.00;61451.13;5113989;28;20193;-66
2023/09/01 04:05:14;;;;;;;6.30;6.20;;;;;;;-141.02;100.00;62439.59;5113599;28;20207;-55
2023/09/01 04:07:41;;;;;;;5.70;5.60;;;;;;;-141.02;100.00;63675.59;5113605;28;20197;-55
2023/09/01 04:10:10;;;;;;;5.65;5.55;;;;;;;-141.02;100.00;65654.13;5113967;28;20284;-55
2023/09/01 04:12:37;;;;;;;5.28;5.18;;;;;;;-141.02;100.00;68128.91;5113779;28;20246;-55
2023/09/01 04:15:06;;;;;;;5.30;5.20;;;;;;;-141.02;100.00;67138.78;5113771;28;20638;-55
2023/09/01 04:17:33;;;;;;;5.80;5.70;;;;;;;-141.02;100.00;64912.06;5113406;28;20221;-55
2023/09/01 04:20:00;;;;;;;6.38;6.28;;;;;;;-141.02;100.00;61698.22;5113710;28;20608;-55
2023/09/01 04:22:27;;;;;;;7.18;6.97;;;;;;;-141.02;100.00;59475.03;5113665;28;20272;-55
2023/09/01 04:24:54;;;;;;;7.50;7.30;;;;;;;-141.02;100.00;57253.28;5113349;28;20193;-55
2023/09/01 04:27:23;;;;;;;8.35;8.15;;;;;;;-141.02;100.00;55850.03;5113244;28;20656;-56
2023/09/01 04:29:50;;;;;;;8.70;8.50;;;;;;;-141.02;100.00;53676.88;5112401;28;20199;-55
2023/09/01 04:32:17;;;;;;;9.63;9.32;;;;;;;-141.02;100.00;52134.56;5113226;28;20203;-66
2023/09/01 04:34:44;;;;;;;10.02;9.73;;;;;;;-141.02;100.00;50575.66;5113163;28;20193;-55
2023/09/01 04:37:11;;;;;;;10.50;10.20;;;;;;;-141.02;100.00;49638.72;5113099;28;20643;-55
2023/09/01 04:39:38;;;;;;;11.00;10.70;;;;;;;-141.02;100.00;48327.06;5113004;28;20770;-55
2023/09/01 04:42:06;;;;;;;11.63;11.23;;;;;;;-141.02;100.00;46458.53;5113019;28;20210;-55
2023/09/01 04:44:34;;;;;;;12.25;11.85;;;;;;;-141.02;100.00;45743.69;5113332;28;20272;-55
2023/09/01 04:47:02;;;;;;;12.23;11.82;;;;;;;-141.02;100.00;45970.44;5113222;27;20242;-55
2023/09/01 04:49:29;;;;;;;12.05;11.65;;;;;;;-141.02;100.00;46160.66;5112939;28;20253;-66
2023/09/01 04:51:57;;;;;;;12.40;12.00;;;;;;;-141.02;100.00;45524.66;5112903;28;20279;-55
2023/09/01 04:54:24;;;;;;;12.75;12.35;;;;;;;-141.02;100.00;45086.63;5112844;28;20206;-55
2023/09/01 04:56:51;;;;;;;12.80;12.40;;;;;;;-141.02;100.00;44990.59;5113169;28;20627;-56
2023/09/01 04:59:18;;;;;;;13.32;12.82;;;;;;;-141.02;100.00;44414.34;5113201;28;20231;-55
2023/09/01 05:01:46;;;;;;;13.60;13.10;;;;;;;-141.02;100.00;43767.16;5113040;28;20196;-55
2023/09/01 05:04:14;;;;;;;13.43;12.93;;;;;;;-141.02;100.00;43521.34;5112665;28;20635;-56
2023/09/01 05:06:41;;;;;;;13.65;13.15;;;;;;;-141.02;100.00;43392.72;5112915;28;20208;-56
2023/09/01 05:09:08;;;;;;;13.55;13.05;;;;;;;-141.02;100.00;43077.84;5112886;28;20275;-56
2023/09/01 05:11:35;;;;;;;13.65;13.15;;;;;;;-141.02;100.00;42724.59;5112890;28;20270;-66
2023/09/01 05:14:02;;;;;;;13.70;13.20;;;;;;;-141.02;100.00;42409.78;5112905;28;20232;-55
2023/09/01 05:16:29;;;;;;;13.18;12.68;;;;;;;-141.02;100.00;42609.41;5112714;28;20193;-56
2023/09/01 05:18:58;;;;;;;13.00;12.50;;;;;;;-141.02;100.00;42363.72;5112513;28;20274;-56
2023/09/01 05:21:24;;;;;;;13.73;13.23;;;;;;;-141.02;100.00;42398.25;5112712;28;20272;-57
2023/09/01 05:23:51;;;;;;;13.55;13.05;;;;;;;-141.02;100.00;42490.41;5112449;28;20285;-56
2023/09/01 05:26:18;;;;;;;13.80;13.30;;;;;;;-141.02;100.00;42407.84;5112756;28;20224;-55
2023/09/01 05:28:45;;;;;;;14.50;13.90;;;;;;;-141.02;100.00;42482.72;5112365;28;20658;-56
2023/09/01 05:31:12;;;;;;;14.23;13.73;;;;;;;-141.02;100.00;42415.53;5112418;28;20195;-55
2023/09/01 05:33:39;;;;;;;14.38;13.77;;;;;;;-141.02;100.00;42490.41;5112330;28;20284;-55
2023/09/01 05:36:08;;;;;;;14.30;13.70;;;;;;;-141.02;100.00;42617.09;5112579;28;20189;-55
2023/09/01 05:38:35;;;;;;;14.60;14.00;;;;;;;-141.02;100.00;42755.31;5112280;28;20198;-57
2023/09/01 05:41:03;;;;;;;15.10;14.45;;;;;;;-141.02;100.00;42620.94;5114965;28;20189;-58
2023/09/01 05:43:30;;;;;;;15.50;14.80;;;;;;;-141.02;100.00;42382.91;5116463;28;20752;-66
2023/09/01 05:45:58;;;;;;;14.98;14.27;;;;;;;-141.02;100.00;42260.06;5116663;28;20200;-55
2023/09/01 05:48:24;;;;;;;14.70;14.10;;;;;;;-141.02;100.00;42179.44;5116704;28;20276;-55
2023/09/01 05:50:51;;;;;;;14.30;13.70;;;;;;;-141.02;100.00;42279.25;5116645;28;20647;-56
2023/09/01 05:53:20;;;;;;;14.15;13.55;;;;;;;-141.02;100.00;42521.13;5116597;28;20199;-55
2023/09/01 05:55:47;;;;;;;14.30;13.70;;;;;;;-141.02;100.00;42655.47;5116526;28;20655;-65
2023/09/01 05:58:14;;;;;;;14.30;13.70;;;;;;;-141.02;100.00;43081.66;5116545;28;20225;-56
2023/09/01 06:00:41;;;;;;;14.48;13.88;;;;;;;-141.02;100.00;42954.97;5116393;28;20714;-57
2023/09/01 06:03:08;;;;;;;14.32;13.73;;;;;;;-141.02;100.00;42832.09;5116064;28;20611;-66
2023/09/01 06:05:35;;;;;;;13.40;12.90;;;;;;;-141.02;100.00;43542.47;5116040;28;20232;-55
2023/09/01 06:08:02;;;;;;;13.75;13.25;;;;;;;-141.02;100.00;43031.75;5115992;28;20283;-55
2023/09/01 06:10:31;;;;;;;13.95;13.45;;;;;;;-141.02;100.00;43077.84;5116036;28;20194;-55
2023/09/01 06:12:58;;;;;;;13.85;13.35;;;;;;;-141.02;100.00;43179.59;5115936;28;20355;-66
2023/09/01 06:15:25;;;;;;;13.77;13.27;;;;;;;-141.02;100.00;43275.59;5115865;28;20284;-63
2023/09/01 06:17:52;;;;;;;14.50;13.90;;;;;;;-141.02;100.00;42935.75;5115713;28;20235;-56
2023/09/01 06:20:19;;;;;;;14.40;13.80;;;;;;;-141.02;100.00;42918.50;5115711;28;20315;-61
2023/09/01 06:22:45;;;;;;;13.98;13.38;;;;;;;-141.02;100.00;42874.34;5116059;28;20248;-55
2023/09/01 06:25:12;;;;;;;13.70;13.20;;;;;;;-141.02;100.00;42981.84;5115750;27;20193;-56
2023/09/01 06:27:41;;;;;;;13.25;12.75;;;;;;;-141.02;100.00;43264.06;5115572;28;20631;-66
2023/09/01 06:30:08;;;;;;;14.00;13.40;;;;;;;-141.02;100.00;43049.03;5115559;28;20295;-58
2023/09/01 06:32:35;;;;;;;13.55;13.05;;;;;;;-141.02;100.00;43008.72;5115471;28;20284;-56
2023/09/01 06:35:02;;;;;;;14.20;13.60;;;;;;;-141.02;100.00;42966.47;5115714;28;20199;-56
2023/09/01 06:37:30;;;;;;;14.07;13.48;;;;;;;-141.02;100.00;42828.25;5115740;28;20633;-65
2023/09/01 06:39:57;;;;;;;13.98;13.38;;;;;;;-141.02;100.00;42743.78;5115181;28;20684;-56
2023/09/01 06:42:24;;;;;;;14.25;13.65;;;;;;;-141.02;100.00;42736.13;5115694;28;20582;-55
2023/09/01 06:44:52;;;;;;;14.13;13.52;;;;;;;-141.02;100.00;42841.69;5115239;28;20240;-55
2023/09/01 06:47:19;;;;;;;14.45;13.85;;;;;;;-141.02;100.00;42910.81;5115593;28;20197;-55
2023/09/01 06:49:46;;;;;;;14.57;13.98;;;;;;;-141.02;100.00;42809.06;5115226;28;20288;-55
2023/09/01 06:52:14;;;;;;;14.60;14.00;;;;;;;-141.02;100.00;42851.28;5114287;28;20193;-65
2023/09/01 06:54:41;;;;;;;15.20;14.50;;;;;;;-141.02;100.00;42640.13;5115430;27;20201;-55
2023/09/01 06:57:08;;;;;;;14.60;14.00;;;;;;;-141.02;100.00;42901.22;5115064;28;20236;-55
2023/09/01 06:59:35;;;;;;;14.75;14.15;;;;;;;-141.02;100.00;42876.25;5114941;28;20235;-65
2023/09/01 07:02:04;;;;;;;15.68;14.98;;;;;;;-141.02;100.00;42889.69;5115223;28;20277;-56
2023/09/01 07:04:31;;;;;;;15.15;14.45;;;;;;;-141.02;100.00;42686.19;5115002;28;20743;-60
2023/09/01 07:06:58;;;;;;;14.85;14.23;;;;;;;-141.02;100.00;42899.28;5115173;28;20280;-56
2023/09/01 07:09:25;;;;;;;15.85;15.13;;;;;;;-141.02;100.00;42690.03;5114849;28;20288;-65
2023/09/01 07:11:52;;;;;;;15.52;14.82;;;;;;;-141.02;100.00;42555.66;5115006;28;20248;-55
2023/09/01 07:14:19;;;;;;;15.30;14.60;;;;;;;-141.02;100.00;42880.09;5114668;28;20675;-56
2023/09/01 07:16:46;;;;;;;16.13;15.32;;;;;;;-141.02;100.00;42887.78;5114532;28;20236;-56
2023/09/01 07:19:14;;;;;;;15.95;15.15;;;;;;;-141.02;100.00;42812.91;5114912;28;20231;-55
2023/09/01 07:21:41;;;;;;;16.70;15.80;;;;;;;-141.02;100.00;42883.94;5114566;28;20295;-55
2023/09/01 07:24:08;;;;;;;16.83;15.93;;;;;;;-141.02;100.00;43058.63;5114839;28;20193;-56
2023/09/01 07:26:35;;;;;;;17.45;16.55;;;;;;;-141.02;100.00;43308.22;5114747;28;20220;-56
2023/09/01 07:29:02;;;;;;;18.08;17.08;;;;;;;-141.02;99.16;43143.09;5114404;28;20754;-56
2023/09/01 07:31:29;;;;;;;17.80;16.80;;;;;;;-141.02;99.14;43381.19;5114800;28;20236;-56
2023/09/01 07:33:57;;;;;;;18.65;17.55;;;;;;;-141.02;94.89;43469.50;5114581;28;20193;-65
2023/09/01 07:36:25;;;;;;;19.02;17.92;;;;;;;-141.02;91.60;43538.63;5114254;28;20193;-55
2023/09/01 07:38:52;;;;;;;18.45;17.45;;;;;;;-141.02;90.55;43289.03;5114189;28;20624;-56
2023/09/01 07:41:19;;;;;;;18.20;17.20;;;;;;;-141.02;91.30;43123.91;5114162;28;20315;-55
2023/09/01 07:43:46;;;;;;;18.05;17.05;;;;;;;-141.02;90.89;43615.44;5114408;28;20221;-65
2023/09/01 07:46:13;;;;;;;18.15;17.15;;;;;;;-141.02;86.97;43191.09;5114414;28;20292;-56
2023/09/01 07:48:40;;;;;;;17.75;16.75;;;;;;;-141.02;91.01;43198.78;5113998;28;20288;-57
2023/09/01 07:51:07;;;;;;;17.60;16.60;;;;;;;-141.02;87.33;43400.38;5113997;28;20233;-56
2023/09/01 07:53:36;;;;;;;17.98;16.98;;;;;;;-141.02;85.67;43127.75;5114280;28;20229;-56
2023/09/01 07:56:04;;;;;;;18.10;17.10;;;;;;;-141.02;85.18;43045.19;5113813;28;20197;-65
2023/09/01 07:58:31;;;;;;;18.20;17.20;;;;;;;-141.02;82.69;43266.00;5113908;28;20197;-59
2023/09/01 08:00:58;;;;;;;18.42;17.42;;;;;;;-141.02;83.34;43131.59;5113769;28;20322;-56
2023/09/01 08:03:25;;;;;;;18.08;17.08;;;;;;;-141.02;81.47;43004.88;5114121;28;20727;-56
2023/09/01 08:05:52;;;;;;;18.05;17.05;;;;;;;-141.02;80.78;43254.47;5113704;28;20220;-56
2023/09/01 08:08:19;;;;;;;18.20;17.20;;;;;;;-141.02;77.12;43300.56;5113926;28;20311;-64
2023/09/01 08:10:47;;;;;;;18.60;17.60;;;;;;;-141.02;74.04;43246.78;5113693;28;20196;-56
2023/09/01 08:13:14;;;;;;;18.05;17.05;;;;;;;-141.02;73.67;43404.22;5113571;28;20681;-62
2023/09/01 08:15:41;;;;;;;18.40;17.30;;;;;;;-141.02;74.22;43603.94;5113921;28;20208;-57
2023/09/01 08:18:08;;;;;;;18.00;17.00;;;;;;;-141.02;73.44;43573.19;5113382;28;20257;-57
2023/09/01 08:20:35;;;;;;;18.08;17.08;;;;;;;-141.02;75.18;43479.13;5113619;28;20225;-64
2023/09/01 08:23:02;;;;;;;17.70;16.70;;;;;;;-141.02;74.66;43229.50;5113729;27;20716;-57
2023/09/01 08:25:29;;;;;;;17.67;16.77;;;;;;;-141.02;72.22;43481.03;5113418;28;20196;-57
2023/09/01 08:27:58;;;;;;;17.35;16.45;;;;;;;-141.02;72.19;43488.72;5113650;28;20197;-64
2023/09/01 08:30:26;;;;;;;17.13;16.23;;;;;;;-141.02;71.09;43433.03;5113509;28;20198;-56
2023/09/01 08:32:53;;;;;;;17.35;16.45;;;;;;;-141.02;67.54;43385.03;5113526;28;20215;-57
2023/09/01 08:35:20;;;;;;;17.60;16.70;;;;;;;-141.02;69.26;43473.34;5114279;28;20270;-57
2023/09/01 08:37:47;;;;;;;18.40;17.50;;;;;;;-141.02;70.09;42991.44;5113408;28;20541;-65
2023/09/01 08:40:14;;;;;;;18.48;17.58;;;;;;;-141.02;69.21;42974.16;5112996;28;20316;-57
2023/09/01 08:42:46;;;;;;;18.25;17.45;;;;;;;-141.02;68.07;43097.03;5113014;28;20223;-57
2023/09/01 08:45:15;;;;;;;18.77;17.88;;;;;;;-141.02;66.30;43047.13;5113379;28;20186;-57
2023/09/01 08:47:46;;;;;;;18.58;17.67;;;;;;;-141.02;66.79;43433.03;5113314;28;20201;-57
2023/09/01 08:50:13;;;;;;;18.40;17.60;;;;;;;-141.02;66.63;43122.00;5112904;28;20186;-57
2023/09/01 08:52:42;;;;;;;18.08;17.27;;;;;;;-141.02;67.38;43538.63;5112877;28;20200;-57
2023/09/01 08:55:10;;;;;;;18.48;17.67;;;;;;;-141.02;65.50;43517.50;5113133;28;20197;-57
2023/09/01 08:57:38;;;;;;;18.90;18.10;;;;;;;-141.02;65.29;43183.44;5112852;28;20658;-57
2023/09/01 09:00:07;;;;;;;18.60;17.80;;;;;;;-141.02;62.37;43108.56;5112534;28;20308;-57
2023/09/01 09:02:36;;;;;;;18.42;17.63;;;;;;;-141.02;64.02;42858.97;5112989;28;20197;-57
2023/09/01 09:05:03;;;;;;;19.13;18.23;;;;;;;-141.02;66.43;42697.72;5113031;28;20197;-57
2023/09/01 09:07:30;;;;;;;18.60;17.80;;;;;;;-141.02;67.04;42851.28;5112695;28;20203;-65
2023/09/01 09:09:59;;;;;;;19.83;18.92;;;;;;;-141.02;64.71;42772.59;5112931;28;20236;-64
2023/09/01 09:12:36;;;;;;;19.05;18.25;;;;;;;-141.02;61.63;42920.41;5112551;28;20548;-57
2023/09/01 09:15:04;;;;;;;19.45;18.55;;;;;;;-141.02;61.59;43100.88;5112522;28;20192;-64
2023/09/01 09:17:44;;;;;;;19.48;18.58;;;;;;;-141.02;59.83;42960.72;5112520;28;20281;-57
2023/09/01 09:20:12;;;;;;;18.88;18.08;;;;;;;-141.02;61.34;42885.84;5112550;28;20241;-57
2023/09/01 09:22:53;;;;;;;18.95;18.13;;;;;;;-141.02;60.29;43064.41;5112437;28;20363;-63
2023/09/01 09:25:30;;;;;;;19.42;18.52;;;;;;;-141.02;59.75;42755.31;5112810;28;20247;-57
2023/09/01 09:27:58;;;;;;;19.70;18.80;;;;;;;-141.02;59.34;42937.69;5112815;28;20184;-58
2023/09/01 09:30:26;;;;;;;19.60;18.70;;;;;;;-141.02;60.04;42818.66;5112426;28;20718;-64
2023/09/01 09:33:04;;;;;;;19.42;18.50;;;;;;;-141.02;58.68;42801.38;5112328;28;20201;-58
2023/09/01 09:35:33;;;;;;;18.85;17.95;;;;;;;-141.02;59.72;42728.44;5112406;28;20287;-57
2023/09/01 09:38:02;;;;;;;19.33;18.42;;;;;;;-141.02;60.23;42858.97;5112692;28;20224;-57
2023/09/01 09:40:30;;;;;;;18.75;17.85;;;;;;;-141.02;58.71;42494.25;5112261;28;20224;-57
2023/09/01 09:42:59;;;;;;;18.35;17.55;;;;;;;-141.02;60.01;42578.69;5112535;28;20277;-57
2023/09/01 09:45:28;;;;;;;18.10;17.27;;;;;;;-141.02;59.15;42586.38;5112616;28;20550;-58
2023/09/01 09:47:57;;;;;;;18.75;17.85;;;;;;;-141.02;59.31;42674.69;5112546;28;20272;-57
2023/09/01 09:50:26;;;;;;;18.58;17.67;;;;;;;-141.02;59.45;42862.81;5112586;28;20200;-57
2023/09/01 09:52:57;;;;;;;18.25;17.35;;;;;;;-141.02;57.87;42935.75;5112453;28;20226;-57
2023/09/01 09:55:27;;;;;;;18.13;17.23;;;;;;;-141.02;57.09;42108.44;5112506;28;20548;-57
2023/09/01 09:58:03;;;;;;;18.85;17.95;;;;;;;-141.02;56.86;42106.50;5112903;28;20197;-58
2023/09/01 10:00:32;;;;;;;18.40;17.50;;;;;;;-141.02;57.16;42770.66;5112167;28;20213;-58
2023/09/01 10:03:03;;;;;;;18.35;17.45;;;;;;;-141.02;57.73;42083.47;5112076;28;20197;-57
2023/09/01 10:05:33;;;;;;;18.38;17.48;;;;;;;-141.02;59.05;42137.22;5112226;28;20616;-65
2023/09/01 10:08:03;;;;;;;18.45;17.55;;;;;;;-141.02;60.04;42214.00;5112192;28;20190;-58
2023/09/01 10:10:33;;;;;;;18.52;17.63;;;;;;;-141.02;58.31;42386.75;5112382;28;20205;-61
2023/09/01 10:13:03;;;;;;;18.25;17.35;;;;;;;-141.02;58.15;42356.03;5112588;28;20220;-57
2023/09/01 10:15:32;;;;;;;18.05;17.15;;;;;;;-141.02;57.33;42567.19;5111968;28;20188;-58
2023/09/01 10:18:01;;;;;;;17.92;17.13;;;;;;;-141.02;56.32;42112.28;5111809;28;20233;-58
2023/09/01 10:20:29;;;;;;;18.17;17.27;;;;;;;-141.02;56.27;42043.19;5112197;28;20224;-58
2023/09/01 10:22:57;;;;;;;18.05;17.15;;;;;;;-141.02;56.14;42039.34;5111858;28;20280;-58
2023/09/01 10:25:26;;;;;;;18.20;17.30;;;;;;;-141.02;57.36;42096.91;5111827;28;20288;-60
2023/09/01 10:28:10;;;;;;;18.30;17.38;;;;;;;-141.02;56.47;41943.38;5114346;28;20192;-63
2023/09/01 10:30:39;;;;;;;18.23;17.33;;;;;;;-141.02;56.43;41924.19;5115627;28;20224;-65
2023/09/01 10:33:10;;;;;;;18.13;17.23;;;;;;;-141.02;55.19;42244.72;5115781;28;20275;-58
2023/09/01 10:35:43;;;;;;;18.27;17.38;;;;;;;-141.02;55.57;41795.59;5116313;28;20193;-65
2023/09/01 10:38:17;;;;;;;18.05;17.15;;;;;;;-141.02;55.12;41738.03;5115787;28;20199;-57
2023/09/01 10:40:45;;;;;;;18.55;17.55;;;;;;;-141.02;55.79;41745.69;5115665;28;20241;-57
2023/09/01 10:43:12;;;;;;;18.17;17.27;;;;;;;-141.02;56.32;41770.66;5115330;28;20288;-62
2023/09/01 10:45:40;;;;;;;18.40;17.40;;;;;;;-141.02;56.55;42494.25;5115638;28;20296;-64
2023/09/01 10:48:11;;;;;;;18.67;17.75;;;;;;;-141.02;55.27;42436.66;5115528;28;20199;-58
2023/09/01 10:50:42;;;;;;;18.75;17.77;;;;;;;-141.02;55.34;42536.47;5115677;28;20190;-57
2023/09/01 10:53:30;;;;;;;18.83;17.83;;;;;;;-141.02;54.27;42801.38;5115136;28;20189;-57
2023/09/01 10:56:10;;;;;;;18.63;17.63;;;;;;;-141.02;52.47;42828.25;5115080;28;20284;-58
2023/09/01 10:58:41;;;;;;;18.40;17.45;;;;;;;-141.02;51.57;42524.94;5115446;28;20538;-57
2023/09/01 11:01:31;;;;;;;16.77;15.98;;;;;;;-141.02;52.55;42436.66;5114928;28;20298;-57
2023/09/01 11:04:32;;;;;;;18.58;17.58;;;;;;;-141.02;53.53;42384.81;5114986;28;20191;-57
2023/09/01 11:07:07;;;;;;;18.08;17.13;;;;;;;-141.02;52.43;42413.63;5115311;28;20215;-65